Bartlett, Nebraska
Current Conditions -  °F | °C
As of 2:15 PM on Monday 26 Jan 2015 (Local Time) from KBVN Reporting Station
Clear Clear  
Wind Chill: 59°   Ceiling: Unl
Heat Index: 59°   Visibility: 10mi
Dew Point: 30°   Wind: 17mph
Humidity: 32%   Direction: 320°NW
Pressure: 29.97"   Gusts: NA
Location:  41.89°N, 98.55°W
Report Text: KBVN 262015Z AUTO 32015KT 10SM CLR 15/M01 A2997 RMK AO2 T01521013
Loading
Personal Weather Stations






























Interactive Weather Map New forecast layout! Learn more

10-Day Weather Forecast

Advertisements
Track Severe Weather on mobile